首页
METAR-TAF:

METAR-TAF

机场 :

巴塞罗那-埃尔普拉特机场

巴塞罗那, 西班牙

纬度: 41-17N, 经度: 002-04E, 海拔: 4米

当前天气观测

该预报发布于37分钟前的01:00 UTC
风速4节,风向西北
温度 15°C
湿度 72%
气压 1018 hPa
能见度10公里或以上
少量云层高于600英尺

METAR: LEBL 230100Z 32004KT 9999 FEW006 15/10 Q1018 NOSIG

时间: 03:37 (01:37 UTC)

预报

该预报发布于2小时和37分钟前的23:00 UTC
预报有效从23日的 00点(UTC)到 23日的 24点(UTC)
风速4节,风向多变
能见度10公里或以上
少量云层高于2500英尺
几率 40% :
短暂存在
从 23日的 00点(UTC)到 23日的 06点(UTC)
能見度: 3000
多云层高于1000英尺
轻雾
几率 30% :
短暂存在
从 23日的 00点(UTC)到 23日的 06点(UTC)
能見度: 0100
多云层高于500英尺
碎片雾
成为
从 23日的 10点(UTC)到 23日的 12点(UTC)
风速10节,风向南转西南
成为
从 23日的 19点(UTC)到 23日的 21点(UTC)
风速3节,风向多变
几率 40% :
短暂存在
从 23日的 12点(UTC)到 23日的 24点(UTC)
能見度: 1000
多云层高于1000英尺
轻雾

TAF: LEBL 222300Z 2300/2324 VRB04KT 9999 FEW025 TX22/2312Z TN14/2306Z PROB40 TEMPO 2300/2306 3000 BR BKN010 PROB30 TEMPO 2300/2306 0100 BCFG BKN005 BECMG 2310/2312 20010KT BECMG 2319/2321 VRB03KT PROB40 TEMPO 2312/2324 1000 BR BKN010

超过4000个机场的气象观测和天气预报(METAR&TAF报告)。

可查询的气象台以黄色和红色小点在地图上表示。

将鼠标移到小点上方,可查看气象台名称。

然后点击查看天气观测和预报。

如需切换地图:点击带黑十字的绿色按钮放大地图;点击带横线的绿色按钮缩小地图;或者点击绿色箭头查看邻近地区的地图。


METAR-TAF: